sensor_id;sensor_type;location;lat;lon;timestamp;temperature;humidity
19906;DHT22;10115;50.906;4.438;2023-02-28T00:01:19;0.40;99.90
19906;DHT22;10115;50.906;4.438;2023-02-28T00:03:45;0.30;99.90
19906;DHT22;10115;50.906;4.438;2023-02-28T00:06:11;0.20;99.90
19906;DHT22;10115;50.906;4.438;2023-02-28T00:08:37;0.30;99.90
19906;DHT22;10115;50.906;4.438;2023-02-28T00:11:08;0.30;99.90
19906;DHT22;10115;50.906;4.438;2023-02-28T00:13:36;0.20;99.90
19906;DHT22;10115;50.906;4.438;2023-02-28T00:16:05;0.10;99.90
19906;DHT22;10115;50.906;4.438;2023-02-28T00:18:32;0.10;99.90
19906;DHT22;10115;50.906;4.438;2023-02-28T00:20:58;0.10;99.90
19906;DHT22;10115;50.906;4.438;2023-02-28T00:23:24;0.10;99.90
19906;DHT22;10115;50.906;4.438;2023-02-28T00:25:51;0.10;99.90
19906;DHT22;10115;50.906;4.438;2023-02-28T00:28:16;0.20;99.90
19906;DHT22;10115;50.906;4.438;2023-02-28T00:30:43;0.10;99.90
19906;DHT22;10115;50.906;4.438;2023-02-28T00:33:09;0.10;99.90
19906;DHT22;10115;50.906;4.438;2023-02-28T00:35:34;0.10;99.90
19906;DHT22;10115;50.906;4.438;2023-02-28T00:38:00;0.20;99.90
19906;DHT22;10115;50.906;4.438;2023-02-28T00:40:26;0.10;99.90
19906;DHT22;10115;50.906;4.438;2023-02-28T00:42:52;0.10;99.90
19906;DHT22;10115;50.906;4.438;2023-02-28T00:45:17;0.00;99.90
19906;DHT22;10115;50.906;4.438;2023-02-28T00:47:43;0.10;99.90
19906;DHT22;10115;50.906;4.438;2023-02-28T00:50:09;0.10;99.90
19906;DHT22;10115;50.906;4.438;2023-02-28T00:52:35;0.00;99.90
19906;DHT22;10115;50.906;4.438;2023-02-28T00:55:01;-0.10;99.90
19906;DHT22;10115;50.906;4.438;2023-02-28T00:57:26;-0.10;99.90
19906;DHT22;10115;50.906;4.438;2023-02-28T00:59:52;-0.20;99.90
19906;DHT22;10115;50.906;4.438;2023-02-28T01:02:20;-0.20;99.90
19906;DHT22;10115;50.906;4.438;2023-02-28T01:04:46;-0.30;99.90
19906;DHT22;10115;50.906;4.438;2023-02-28T01:07:12;-0.30;99.90
19906;DHT22;10115;50.906;4.438;2023-02-28T01:09:40;-0.30;99.90
19906;DHT22;10115;50.906;4.438;2023-02-28T01:12:07;-0.40;99.90
19906;DHT22;10115;50.906;4.438;2023-02-28T01:14:33;-0.40;99.90
19906;DHT22;10115;50.906;4.438;2023-02-28T01:17:00;-0.20;99.90
19906;DHT22;10115;50.906;4.438;2023-02-28T01:19:25;-0.10;99.90
19906;DHT22;10115;50.906;4.438;2023-02-28T01:21:51;-0.30;99.90
19906;DHT22;10115;50.906;4.438;2023-02-28T01:24:17;-0.30;99.90
19906;DHT22;10115;50.906;4.438;2023-02-28T01:26:42;-0.20;99.90
19906;DHT22;10115;50.906;4.438;2023-02-28T01:29:08;-0.20;99.90
19906;DHT22;10115;50.906;4.438;2023-02-28T01:31:34;-0.30;99.90
19906;DHT22;10115;50.906;4.438;2023-02-28T01:34:00;-0.30;99.90
19906;DHT22;10115;50.906;4.438;2023-02-28T01:36:26;-0.30;99.90
19906;DHT22;10115;50.906;4.438;2023-02-28T01:38:52;-0.40;99.90
19906;DHT22;10115;50.906;4.438;2023-02-28T01:41:24;-0.50;99.90
19906;DHT22;10115;50.906;4.438;2023-02-28T01:44:04;-0.40;99.90
19906;DHT22;10115;50.906;4.438;2023-02-28T01:46:34;-0.40;99.90
19906;DHT22;10115;50.906;4.438;2023-02-28T01:49:09;-0.40;99.90
19906;DHT22;10115;50.906;4.438;2023-02-28T01:51:49;-0.40;99.90
19906;DHT22;10115;50.906;4.438;2023-02-28T01:54:28;-0.50;99.90
19906;DHT22;10115;50.906;4.438;2023-02-28T01:57:14;-0.40;99.90
19906;DHT22;10115;50.906;4.438;2023-02-28T01:59:45;-0.50;99.90
19906;DHT22;10115;50.906;4.438;2023-02-28T02:02:15;-0.60;99.90
19906;DHT22;10115;50.906;4.438;2023-02-28T02:05:08;-0.60;99.90
19906;DHT22;10115;50.906;4.438;2023-02-28T02:07:37;-0.50;99.90
19906;DHT22;10115;50.906;4.438;2023-02-28T02:15:38;-0.60;99.90
19906;DHT22;10115;50.906;4.438;2023-02-28T02:18:18;-0.60;99.90
19906;DHT22;10115;50.906;4.438;2023-02-28T02:20:58;-0.60;99.90
19906;DHT22;10115;50.906;4.438;2023-02-28T02:35:15;-1.00;99.90
19906;DHT22;10115;50.906;4.438;2023-02-28T02:40:27;-1.00;99.90
19906;DHT22;10115;50.906;4.438;2023-02-28T02:43:01;-0.90;99.90
19906;DHT22;10115;50.906;4.438;2023-02-28T02:45:35;-0.90;99.90
19906;DHT22;10115;50.906;4.438;2023-02-28T02:48:06;-0.90;99.90
19906;DHT22;10115;50.906;4.438;2023-02-28T02:50:49;-0.90;99.90
19906;DHT22;10115;50.906;4.438;2023-02-28T02:53:18;-0.90;99.90
19906;DHT22;10115;50.906;4.438;2023-02-28T02:55:48;-1.00;99.90
19906;DHT22;10115;50.906;4.438;2023-02-28T02:58:22;-0.90;99.90
19906;DHT22;10115;50.906;4.438;2023-02-28T03:00:53;-1.00;99.90
19906;DHT22;10115;50.906;4.438;2023-02-28T03:03:21;-0.90;99.90
19906;DHT22;10115;50.906;4.438;2023-02-28T03:05:54;-0.90;99.90
19906;DHT22;10115;50.906;4.438;2023-02-28T03:08:20;-1.00;99.90
19906;DHT22;10115;50.906;4.438;2023-02-28T03:10:49;-1.00;99.90
19906;DHT22;10115;50.906;4.438;2023-02-28T03:24:32;-1.10;99.90
19906;DHT22;10115;50.906;4.438;2023-02-28T03:27:09;-1.20;99.90
19906;DHT22;10115;50.906;4.438;2023-02-28T03:29:50;-1.20;99.90
19906;DHT22;10115;50.906;4.438;2023-02-28T03:32:33;-1.10;99.90
19906;DHT22;10115;50.906;4.438;2023-02-28T03:35:18;-1.20;99.90
19906;DHT22;10115;50.906;4.438;2023-02-28T03:37:52;-1.20;99.90
19906;DHT22;10115;50.906;4.438;2023-02-28T03:40:24;-1.10;99.90
19906;DHT22;10115;50.906;4.438;2023-02-28T03:42:56;-1.20;99.90
19906;DHT22;10115;50.906;4.438;2023-02-28T03:45:30;-1.20;99.90
19906;DHT22;10115;50.906;4.438;2023-02-28T03:48:23;-1.20;99.90
19906;DHT22;10115;50.906;4.438;2023-02-28T03:50:49;-1.10;99.90
19906;DHT22;10115;50.906;4.438;2023-02-28T03:55:52;-1.30;99.90
19906;DHT22;10115;50.906;4.438;2023-02-28T03:58:24;-1.20;99.90
19906;DHT22;10115;50.906;4.438;2023-02-28T04:01:23;-1.20;99.90
19906;DHT22;10115;50.906;4.438;2023-02-28T04:03:51;-1.30;99.90
19906;DHT22;10115;50.906;4.438;2023-02-28T04:06:22;-1.30;99.90
19906;DHT22;10115;50.906;4.438;2023-02-28T04:08:48;-1.30;99.90
19906;DHT22;10115;50.906;4.438;2023-02-28T04:11:39;-1.30;99.90
19906;DHT22;10115;50.906;4.438;2023-02-28T04:14:06;-1.40;99.90
19906;DHT22;10115;50.906;4.438;2023-02-28T04:16:35;-1.40;99.90
19906;DHT22;10115;50.906;4.438;2023-02-28T04:19:02;-1.40;99.90
19906;DHT22;10115;50.906;4.438;2023-02-28T04:21:33;-1.30;99.90
19906;DHT22;10115;50.906;4.438;2023-02-28T04:23:59;-1.30;99.90
19906;DHT22;10115;50.906;4.438;2023-02-28T04:26:33;-1.30;99.90
19906;DHT22;10115;50.906;4.438;2023-02-28T04:28:59;-1.30;99.90
19906;DHT22;10115;50.906;4.438;2023-02-28T04:31:25;-1.20;99.90
19906;DHT22;10115;50.906;4.438;2023-02-28T04:33:51;-1.10;99.90
19906;DHT22;10115;50.906;4.438;2023-02-28T04:36:17;-1.20;99.90
19906;DHT22;10115;50.906;4.438;2023-02-28T04:38:44;-1.10;99.90
19906;DHT22;10115;50.906;4.438;2023-02-28T04:41:10;-1.10;99.90
19906;DHT22;10115;50.906;4.438;2023-02-28T04:43:35;-1.20;99.90
19906;DHT22;10115;50.906;4.438;2023-02-28T04:46:03;-1.20;99.90
19906;DHT22;10115;50.906;4.438;2023-02-28T04:48:31;-1.20;99.90
19906;DHT22;10115;50.906;4.438;2023-02-28T04:51:05;-1.10;99.90
19906;DHT22;10115;50.906;4.438;2023-02-28T04:53:32;-1.00;99.90
19906;DHT22;10115;50.906;4.438;2023-02-28T04:55:58;-1.00;99.90
19906;DHT22;10115;50.906;4.438;2023-02-28T04:58:24;-0.90;99.90
19906;DHT22;10115;50.906;4.438;2023-02-28T05:00:53;-0.80;99.90
19906;DHT22;10115;50.906;4.438;2023-02-28T05:03:20;-0.70;99.90
19906;DHT22;10115;50.906;4.438;2023-02-28T05:05:48;-0.60;99.90
19906;DHT22;10115;50.906;4.438;2023-02-28T05:08:14;-0.60;99.90
19906;DHT22;10115;50.906;4.438;2023-02-28T05:10:39;-0.50;99.90
19906;DHT22;10115;50.906;4.438;2023-02-28T05:13:05;-0.40;99.90
19906;DHT22;10115;50.906;4.438;2023-02-28T05:15:31;-0.30;99.90
19906;DHT22;10115;50.906;4.438;2023-02-28T05:17:56;-0.20;99.90
19906;DHT22;10115;50.906;4.438;2023-02-28T05:20:22;-0.30;99.90
19906;DHT22;10115;50.906;4.438;2023-02-28T05:22:49;-0.20;99.90
19906;DHT22;10115;50.906;4.438;2023-02-28T05:25:18;-0.10;99.90
19906;DHT22;10115;50.906;4.438;2023-02-28T05:27:45;0.00;99.90
19906;DHT22;10115;50.906;4.438;2023-02-28T05:30:11;0.00;99.90
19906;DHT22;10115;50.906;4.438;2023-02-28T05:32:38;0.00;99.90
19906;DHT22;10115;50.906;4.438;2023-02-28T05:35:05;0.00;99.90
19906;DHT22;10115;50.906;4.438;2023-02-28T05:37:30;0.10;99.90
19906;DHT22;10115;50.906;4.438;2023-02-28T05:39:56;0.00;99.90
19906;DHT22;10115;50.906;4.438;2023-02-28T05:42:22;0.10;99.90
19906;DHT22;10115;50.906;4.438;2023-02-28T05:44:50;0.00;99.90
19906;DHT22;10115;50.906;4.438;2023-02-28T05:47:16;0.10;99.90
19906;DHT22;10115;50.906;4.438;2023-02-28T05:49:42;0.20;99.90
19906;DHT22;10115;50.906;4.438;2023-02-28T05:52:08;0.20;99.90
19906;DHT22;10115;50.906;4.438;2023-02-28T05:54:33;0.20;99.90
19906;DHT22;10115;50.906;4.438;2023-02-28T05:56:59;0.20;99.90
19906;DHT22;10115;50.906;4.438;2023-02-28T05:59:25;0.20;99.90
19906;DHT22;10115;50.906;4.438;2023-02-28T06:01:50;0.20;99.90
19906;DHT22;10115;50.906;4.438;2023-02-28T06:04:20;0.10;99.90
19906;DHT22;10115;50.906;4.438;2023-02-28T06:06:46;0.30;99.90
19906;DHT22;10115;50.906;4.438;2023-02-28T06:09:12;0.40;99.90
19906;DHT22;10115;50.906;4.438;2023-02-28T06:11:38;0.40;99.90
19906;DHT22;10115;50.906;4.438;2023-02-28T06:14:05;0.50;99.90
19906;DHT22;10115;50.906;4.438;2023-02-28T06:16:33;0.50;99.90
19906;DHT22;10115;50.906;4.438;2023-02-28T06:19:00;0.50;99.90
19906;DHT22;10115;50.906;4.438;2023-02-28T06:21:30;0.50;99.90
19906;DHT22;10115;50.906;4.438;2023-02-28T06:23:57;0.50;99.90
19906;DHT22;10115;50.906;4.438;2023-02-28T06:26:22;0.50;99.90
19906;DHT22;10115;50.906;4.438;2023-02-28T06:28:48;0.50;99.90
19906;DHT22;10115;50.906;4.438;2023-02-28T06:31:16;0.60;99.90
19906;DHT22;10115;50.906;4.438;2023-02-28T06:33:43;0.60;99.90
19906;DHT22;10115;50.906;4.438;2023-02-28T06:36:11;0.60;99.90
19906;DHT22;10115;50.906;4.438;2023-02-28T06:38:38;0.70;99.90
19906;DHT22;10115;50.906;4.438;2023-02-28T06:41:05;0.80;99.90
19906;DHT22;10115;50.906;4.438;2023-02-28T06:43:34;0.80;99.90
19906;DHT22;10115;50.906;4.438;2023-02-28T06:46:02;0.80;99.90
19906;DHT22;10115;50.906;4.438;2023-02-28T06:48:28;0.80;99.90
19906;DHT22;10115;50.906;4.438;2023-02-28T06:51:05;0.80;99.90
19906;DHT22;10115;50.906;4.438;2023-02-28T06:53:31;0.80;99.90
19906;DHT22;10115;50.906;4.438;2023-02-28T06:55:56;0.90;99.90
19906;DHT22;10115;50.906;4.438;2023-02-28T06:58:22;0.90;99.90
19906;DHT22;10115;50.906;4.438;2023-02-28T07:00:51;0.90;99.90
19906;DHT22;10115;50.906;4.438;2023-02-28T07:03:18;0.90;99.90
19906;DHT22;10115;50.906;4.438;2023-02-28T07:05:44;1.00;99.90
19906;DHT22;10115;50.906;4.438;2023-02-28T07:08:10;1.10;99.90
19906;DHT22;10115;50.906;4.438;2023-02-28T07:10:40;1.10;99.90
19906;DHT22;10115;50.906;4.438;2023-02-28T07:13:07;1.30;99.90
19906;DHT22;10115;50.906;4.438;2023-02-28T07:15:34;1.40;99.90
19906;DHT22;10115;50.906;4.438;2023-02-28T07:18:00;1.40;99.90
19906;DHT22;10115;50.906;4.438;2023-02-28T07:20:26;1.50;99.90
19906;DHT22;10115;50.906;4.438;2023-02-28T07:22:52;1.50;99.90
19906;DHT22;10115;50.906;4.438;2023-02-28T07:25:26;1.30;99.90
19906;DHT22;10115;50.906;4.438;2023-02-28T07:27:53;1.30;99.90
19906;DHT22;10115;50.906;4.438;2023-02-28T07:30:19;1.30;99.90
19906;DHT22;10115;50.906;4.438;2023-02-28T07:32:45;1.30;99.90
19906;DHT22;10115;50.906;4.438;2023-02-28T07:35:11;1.50;99.90
19906;DHT22;10115;50.906;4.438;2023-02-28T07:37:37;1.70;99.90
19906;DHT22;10115;50.906;4.438;2023-02-28T07:40:04;1.70;99.90
19906;DHT22;10115;50.906;4.438;2023-02-28T07:42:34;1.80;99.90
19906;DHT22;10115;50.906;4.438;2023-02-28T07:45:00;1.80;99.90
19906;DHT22;10115;50.906;4.438;2023-02-28T07:47:26;1.90;99.90
19906;DHT22;10115;50.906;4.438;2023-02-28T07:49:52;1.80;99.90
19906;DHT22;10115;50.906;4.438;2023-02-28T07:52:18;1.80;99.90
19906;DHT22;10115;50.906;4.438;2023-02-28T07:54:44;1.90;99.90
19906;DHT22;10115;50.906;4.438;2023-02-28T07:57:10;2.00;99.90
19906;DHT22;10115;50.906;4.438;2023-02-28T07:59:35;2.00;99.90
19906;DHT22;10115;50.906;4.438;2023-02-28T08:02:01;2.20;99.90
19906;DHT22;10115;50.906;4.438;2023-02-28T08:04:27;2.20;99.90
19906;DHT22;10115;50.906;4.438;2023-02-28T08:06:52;2.10;99.90
19906;DHT22;10115;50.906;4.438;2023-02-28T08:09:19;2.10;99.90
19906;DHT22;10115;50.906;4.438;2023-02-28T08:11:44;2.30;99.90
19906;DHT22;10115;50.906;4.438;2023-02-28T08:14:10;2.40;99.90
19906;DHT22;10115;50.906;4.438;2023-02-28T08:16:36;2.50;99.90
19906;DHT22;10115;50.906;4.438;2023-02-28T08:19:02;2.50;99.90
19906;DHT22;10115;50.906;4.438;2023-02-28T08:21:28;2.60;99.90
19906;DHT22;10115;50.906;4.438;2023-02-28T08:23:54;2.80;99.90
19906;DHT22;10115;50.906;4.438;2023-02-28T08:26:20;2.90;99.90
19906;DHT22;10115;50.906;4.438;2023-02-28T08:28:46;3.00;99.90
19906;DHT22;10115;50.906;4.438;2023-02-28T08:31:13;3.10;99.90
19906;DHT22;10115;50.906;4.438;2023-02-28T08:33:41;3.10;99.90
19906;DHT22;10115;50.906;4.438;2023-02-28T08:36:07;3.20;99.90
19906;DHT22;10115;50.906;4.438;2023-02-28T08:38:34;3.40;99.90
19906;DHT22;10115;50.906;4.438;2023-02-28T08:41:02;3.50;99.90
19906;DHT22;10115;50.906;4.438;2023-02-28T08:43:31;3.40;99.90
19906;DHT22;10115;50.906;4.438;2023-02-28T08:45:57;3.20;99.90
19906;DHT22;10115;50.906;4.438;2023-02-28T08:48:27;2.90;99.90
19906;DHT22;10115;50.906;4.438;2023-02-28T08:51:07;3.00;99.90
19906;DHT22;10115;50.906;4.438;2023-02-28T08:53:35;2.90;99.90
19906;DHT22;10115;50.906;4.438;2023-02-28T08:56:09;2.90;99.90
19906;DHT22;10115;50.906;4.438;2023-02-28T08:58:36;2.80;99.90
19906;DHT22;10115;50.906;4.438;2023-02-28T09:01:11;2.70;99.90
19906;DHT22;10115;50.906;4.438;2023-02-28T09:03:37;2.70;99.90
19906;DHT22;10115;50.906;4.438;2023-02-28T09:06:10;2.70;99.90
19906;DHT22;10115;50.906;4.438;2023-02-28T09:08:36;2.60;99.90
19906;DHT22;10115;50.906;4.438;2023-02-28T09:11:02;2.70;99.90
19906;DHT22;10115;50.906;4.438;2023-02-28T09:13:29;2.80;99.90
19906;DHT22;10115;50.906;4.438;2023-02-28T09:15:58;2.90;99.90
19906;DHT22;10115;50.906;4.438;2023-02-28T09:18:24;3.00;99.90
19906;DHT22;10115;50.906;4.438;2023-02-28T09:20:50;2.90;99.90
19906;DHT22;10115;50.906;4.438;2023-02-28T09:23:16;2.90;99.90
19906;DHT22;10115;50.906;4.438;2023-02-28T09:25:53;2.90;99.90
19906;DHT22;10115;50.906;4.438;2023-02-28T09:28:19;2.90;99.90
19906;DHT22;10115;50.906;4.438;2023-02-28T09:30:50;3.00;99.90
19906;DHT22;10115;50.906;4.438;2023-02-28T09:33:17;3.00;99.90
19906;DHT22;10115;50.906;4.438;2023-02-28T09:35:44;3.00;99.90
19906;DHT22;10115;50.906;4.438;2023-02-28T09:38:10;3.00;99.90
19906;DHT22;10115;50.906;4.438;2023-02-28T09:40:50;2.90;99.90
19906;DHT22;10115;50.906;4.438;2023-02-28T09:43:17;2.80;99.90
19906;DHT22;10115;50.906;4.438;2023-02-28T09:45:56;2.90;99.90
19906;DHT22;10115;50.906;4.438;2023-02-28T09:48:29;3.00;99.90
19906;DHT22;10115;50.906;4.438;2023-02-28T09:51:04;3.00;99.90
19906;DHT22;10115;50.906;4.438;2023-02-28T09:53:36;3.00;99.90
19906;DHT22;10115;50.906;4.438;2023-02-28T09:56:17;3.10;99.90
19906;DHT22;10115;50.906;4.438;2023-02-28T10:01:44;3.30;99.90
19906;DHT22;10115;50.906;4.438;2023-02-28T10:06:50;3.40;99.90
19906;DHT22;10115;50.906;4.438;2023-02-28T10:09:29;3.50;99.90
19906;DHT22;10115;50.906;4.438;2023-02-28T10:12:00;3.50;99.90
19906;DHT22;10115;50.906;4.438;2023-02-28T10:14:31;3.40;99.90
19906;DHT22;10115;50.906;4.438;2023-02-28T10:19:34;3.50;99.90
19906;DHT22;10115;50.906;4.438;2023-02-28T10:24:55;3.80;99.90
19906;DHT22;10115;50.906;4.438;2023-02-28T10:27:32;3.90;99.90
19906;DHT22;10115;50.906;4.438;2023-02-28T10:29:59;4.00;99.90
19906;DHT22;10115;50.906;4.438;2023-02-28T10:32:36;3.90;99.90
19906;DHT22;10115;50.906;4.438;2023-02-28T10:37:38;4.10;99.90
19906;DHT22;10115;50.906;4.438;2023-02-28T10:40:32;4.10;99.90
19906;DHT22;10115;50.906;4.438;2023-02-28T10:43:26;4.20;99.90
19906;DHT22;10115;50.906;4.438;2023-02-28T10:48:27;4.20;99.90
19906;DHT22;10115;50.906;4.438;2023-02-28T10:50:55;4.30;99.90
19906;DHT22;10115;50.906;4.438;2023-02-28T10:53:30;4.60;99.90
19906;DHT22;10115;50.906;4.438;2023-02-28T10:59:05;4.40;99.90
19906;DHT22;10115;50.906;4.438;2023-02-28T11:01:47;4.40;99.90
19906;DHT22;10115;50.906;4.438;2023-02-28T11:07:04;4.70;99.90
19906;DHT22;10115;50.906;4.438;2023-02-28T11:09:34;4.80;99.90
19906;DHT22;10115;50.906;4.438;2023-02-28T11:12:02;4.90;99.90
19906;DHT22;10115;50.906;4.438;2023-02-28T11:14:32;4.90;99.90
19906;DHT22;10115;50.906;4.438;2023-02-28T11:17:19;4.80;99.90
19906;DHT22;10115;50.906;4.438;2023-02-28T11:19:48;4.80;99.90
19906;DHT22;10115;50.906;4.438;2023-02-28T11:22:23;4.70;99.90
19906;DHT22;10115;50.906;4.438;2023-02-28T11:24:55;4.70;99.90
19906;DHT22;10115;50.906;4.438;2023-02-28T11:27:26;4.80;99.90
19906;DHT22;10115;50.906;4.438;2023-02-28T11:30:26;4.60;99.90
19906;DHT22;10115;50.906;4.438;2023-02-28T11:32:52;4.50;99.90
19906;DHT22;10115;50.906;4.438;2023-02-28T11:37:52;4.80;99.90
19906;DHT22;10115;50.906;4.438;2023-02-28T11:40:39;4.80;99.90
19906;DHT22;10115;50.906;4.438;2023-02-28T11:43:30;4.80;99.90
19906;DHT22;10115;50.906;4.438;2023-02-28T11:51:21;5.00;99.90
19906;DHT22;10115;50.906;4.438;2023-02-28T11:56:33;5.40;99.90
19906;DHT22;10115;50.906;4.438;2023-02-28T11:59:14;5.50;99.90
19906;DHT22;10115;50.906;4.438;2023-02-28T12:01:54;5.30;99.90
19906;DHT22;10115;50.906;4.438;2023-02-28T12:07:23;5.40;99.90
19906;DHT22;10115;50.906;4.438;2023-02-28T12:15:53;5.70;99.90
19906;DHT22;10115;50.906;4.438;2023-02-28T12:26:47;5.60;99.90
19906;DHT22;10115;50.906;4.438;2023-02-28T12:29:49;5.80;99.90
19906;DHT22;10115;50.906;4.438;2023-02-28T12:32:21;5.90;99.90
19906;DHT22;10115;50.906;4.438;2023-02-28T12:34:50;5.90;99.90
19906;DHT22;10115;50.906;4.438;2023-02-28T12:37:42;6.00;99.90
19906;DHT22;10115;50.906;4.438;2023-02-28T12:40:22;6.10;99.90
19906;DHT22;10115;50.906;4.438;2023-02-28T12:43:05;6.10;99.90
19906;DHT22;10115;50.906;4.438;2023-02-28T12:48:06;6.30;99.90
19906;DHT22;10115;50.906;4.438;2023-02-28T12:50:33;6.30;99.90
19906;DHT22;10115;50.906;4.438;2023-02-28T12:53:07;6.20;99.90
19906;DHT22;10115;50.906;4.438;2023-02-28T12:56:01;6.00;99.90
19906;DHT22;10115;50.906;4.438;2023-02-28T13:04:21;6.10;99.90
19906;DHT22;10115;50.906;4.438;2023-02-28T13:07:10;6.20;99.90
19906;DHT22;10115;50.906;4.438;2023-02-28T13:09:41;6.20;99.90
19906;DHT22;10115;50.906;4.438;2023-02-28T13:12:25;6.20;99.90
19906;DHT22;10115;50.906;4.438;2023-02-28T13:15:23;6.20;99.90
19906;DHT22;10115;50.906;4.438;2023-02-28T13:17:51;6.20;99.90
19906;DHT22;10115;50.906;4.438;2023-02-28T13:20:27;6.10;99.90
19906;DHT22;10115;50.906;4.438;2023-02-28T13:22:55;6.10;99.90
19906;DHT22;10115;50.906;4.438;2023-02-28T13:27:53;6.30;99.90
19906;DHT22;10115;50.906;4.438;2023-02-28T13:36:28;6.40;99.90
19906;DHT22;10115;50.906;4.438;2023-02-28T13:38:58;6.40;99.90
19906;DHT22;10115;50.906;4.438;2023-02-28T13:46:32;6.60;99.90
19906;DHT22;10115;50.906;4.438;2023-02-28T14:04:06;8.20;99.90
19906;DHT22;10115;50.906;4.438;2023-02-28T14:06:37;8.90;99.90
19906;DHT22;10115;50.906;4.438;2023-02-28T14:09:25;9.40;99.90
19906;DHT22;10115;50.906;4.438;2023-02-28T14:11:53;9.20;99.90
19906;DHT22;10115;50.906;4.438;2023-02-28T14:17:08;9.00;99.90
19906;DHT22;10115;50.906;4.438;2023-02-28T14:19:38;8.80;99.90
19906;DHT22;10115;50.906;4.438;2023-02-28T14:28:07;9.40;99.90
19906;DHT22;10115;50.906;4.438;2023-02-28T14:30:51;10.40;99.90
19906;DHT22;10115;50.906;4.438;2023-02-28T14:33:31;10.20;99.50
19906;DHT22;10115;50.906;4.438;2023-02-28T14:36:16;10.00;98.70
19906;DHT22;10115;50.906;4.438;2023-02-28T14:38:52;10.00;99.30
19906;DHT22;10115;50.906;4.438;2023-02-28T14:41:30;10.20;99.80
19906;DHT22;10115;50.906;4.438;2023-02-28T14:43:58;11.00;98.70
19906;DHT22;10115;50.906;4.438;2023-02-28T14:46:38;11.40;97.30
19906;DHT22;10115;50.906;4.438;2023-02-28T14:49:05;11.30;96.50
19906;DHT22;10115;50.906;4.438;2023-02-28T14:51:33;10.60;97.30
19906;DHT22;10115;50.906;4.438;2023-02-28T14:54:01;10.90;97.10
19906;DHT22;10115;50.906;4.438;2023-02-28T14:56:35;11.00;96.40
19906;DHT22;10115;50.906;4.438;2023-02-28T14:59:02;11.40;95.70
19906;DHT22;10115;50.906;4.438;2023-02-28T15:01:28;11.10;95.60
19906;DHT22;10115;50.906;4.438;2023-02-28T15:04:02;11.00;95.90
19906;DHT22;10115;50.906;4.438;2023-02-28T15:06:28;11.30;95.20
19906;DHT22;10115;50.906;4.438;2023-02-28T15:09:15;11.40;95.60
19906;DHT22;10115;50.906;4.438;2023-02-28T15:11:41;11.50;94.40
19906;DHT22;10115;50.906;4.438;2023-02-28T15:14:12;11.00;95.00
19906;DHT22;10115;50.906;4.438;2023-02-28T15:16:41;10.90;96.00
19906;DHT22;10115;50.906;4.438;2023-02-28T15:19:21;11.10;94.80
19906;DHT22;10115;50.906;4.438;2023-02-28T15:21:50;11.30;95.60
19906;DHT22;10115;50.906;4.438;2023-02-28T15:24:22;12.10;93.80
19906;DHT22;10115;50.906;4.438;2023-02-28T15:27:00;11.60;94.60
19906;DHT22;10115;50.906;4.438;2023-02-28T15:29:29;11.70;93.60
19906;DHT22;10115;50.906;4.438;2023-02-28T15:32:07;11.90;93.70
19906;DHT22;10115;50.906;4.438;2023-02-28T15:34:39;11.60;93.60
19906;DHT22;10115;50.906;4.438;2023-02-28T15:37:33;11.40;94.40
19906;DHT22;10115;50.906;4.438;2023-02-28T15:40:26;11.60;92.90
19906;DHT22;10115;50.906;4.438;2023-02-28T15:43:14;11.20;93.10
19906;DHT22;10115;50.906;4.438;2023-02-28T15:45:57;10.30;93.10
19906;DHT22;10115;50.906;4.438;2023-02-28T15:48:44;9.40;94.10
19906;DHT22;10115;50.906;4.438;2023-02-28T15:51:29;10.00;94.10
19906;DHT22;10115;50.906;4.438;2023-02-28T15:54:01;10.10;93.90
19906;DHT22;10115;50.906;4.438;2023-02-28T15:56:33;10.20;93.80
19906;DHT22;10115;50.906;4.438;2023-02-28T15:59:05;10.30;93.20
19906;DHT22;10115;50.906;4.438;2023-02-28T16:01:37;10.30;94.30
19906;DHT22;10115;50.906;4.438;2023-02-28T16:04:15;10.30;92.80
19906;DHT22;10115;50.906;4.438;2023-02-28T16:09:13;8.90;93.80
19906;DHT22;10115;50.906;4.438;2023-02-28T16:11:51;8.60;95.00
19906;DHT22;10115;50.906;4.438;2023-02-28T16:14:22;8.80;95.00
19906;DHT22;10115;50.906;4.438;2023-02-28T16:16:54;9.40;94.80
19906;DHT22;10115;50.906;4.438;2023-02-28T16:19:20;8.90;94.50
19906;DHT22;10115;50.906;4.438;2023-02-28T16:21:47;8.00;95.30
19906;DHT22;10115;50.906;4.438;2023-02-28T16:24:13;7.20;96.20
19906;DHT22;10115;50.906;4.438;2023-02-28T16:26:41;6.60;96.90
19906;DHT22;10115;50.906;4.438;2023-02-28T16:29:10;6.00;98.10
19906;DHT22;10115;50.906;4.438;2023-02-28T16:31:38;5.60;98.60
19906;DHT22;10115;50.906;4.438;2023-02-28T16:34:05;5.40;99.00
19906;DHT22;10115;50.906;4.438;2023-02-28T16:36:31;5.20;99.50
19906;DHT22;10115;50.906;4.438;2023-02-28T16:38:57;5.30;99.90
19906;DHT22;10115;50.906;4.438;2023-02-28T16:41:25;5.10;99.90
19906;DHT22;10115;50.906;4.438;2023-02-28T16:43:54;5.10;99.90
19906;DHT22;10115;50.906;4.438;2023-02-28T16:46:25;5.10;99.90
19906;DHT22;10115;50.906;4.438;2023-02-28T16:48:52;5.00;99.90
19906;DHT22;10115;50.906;4.438;2023-02-28T16:51:18;4.90;99.90
19906;DHT22;10115;50.906;4.438;2023-02-28T16:53:45;4.80;99.90
19906;DHT22;10115;50.906;4.438;2023-02-28T16:56:17;4.80;99.90
19906;DHT22;10115;50.906;4.438;2023-02-28T16:58:44;4.80;99.90
19906;DHT22;10115;50.906;4.438;2023-02-28T17:01:10;4.80;99.90
19906;DHT22;10115;50.906;4.438;2023-02-28T17:03:36;4.70;99.90
19906;DHT22;10115;50.906;4.438;2023-02-28T17:06:03;4.60;99.90
19906;DHT22;10115;50.906;4.438;2023-02-28T17:08:29;4.50;99.90
19906;DHT22;10115;50.906;4.438;2023-02-28T17:10:57;4.40;99.90
19906;DHT22;10115;50.906;4.438;2023-02-28T17:13:23;4.30;99.90
19906;DHT22;10115;50.906;4.438;2023-02-28T17:15:49;4.30;99.90
19906;DHT22;10115;50.906;4.438;2023-02-28T17:18:17;4.20;99.90
19906;DHT22;10115;50.906;4.438;2023-02-28T17:20:48;4.30;99.90
19906;DHT22;10115;50.906;4.438;2023-02-28T17:23:14;4.10;99.90
19906;DHT22;10115;50.906;4.438;2023-02-28T17:25:41;4.10;99.90
19906;DHT22;10115;50.906;4.438;2023-02-28T17:28:07;3.90;99.90
19906;DHT22;10115;50.906;4.438;2023-02-28T17:30:34;3.90;99.90
19906;DHT22;10115;50.906;4.438;2023-02-28T17:33:00;3.80;99.90
19906;DHT22;10115;50.906;4.438;2023-02-28T17:35:26;3.70;99.90
19906;DHT22;10115;50.906;4.438;2023-02-28T17:37:52;3.70;99.90
19906;DHT22;10115;50.906;4.438;2023-02-28T17:40:20;3.60;99.90
19906;DHT22;10115;50.906;4.438;2023-02-28T17:42:46;3.50;99.90
19906;DHT22;10115;50.906;4.438;2023-02-28T17:45:13;3.50;99.90
19906;DHT22;10115;50.906;4.438;2023-02-28T17:47:39;3.50;99.90
19906;DHT22;10115;50.906;4.438;2023-02-28T17:50:05;3.40;99.90
19906;DHT22;10115;50.906;4.438;2023-02-28T17:52:31;3.40;99.90
19906;DHT22;10115;50.906;4.438;2023-02-28T17:55:02;3.30;99.90
19906;DHT22;10115;50.906;4.438;2023-02-28T17:57:28;3.30;99.90
19906;DHT22;10115;50.906;4.438;2023-02-28T17:59:54;3.30;99.90
19906;DHT22;10115;50.906;4.438;2023-02-28T18:02:19;3.20;99.90
19906;DHT22;10115;50.906;4.438;2023-02-28T18:04:45;3.10;99.90
19906;DHT22;10115;50.906;4.438;2023-02-28T18:07:11;3.10;99.90
19906;DHT22;10115;50.906;4.438;2023-02-28T18:09:37;3.00;99.90
19906;DHT22;10115;50.906;4.438;2023-02-28T18:12:03;3.10;99.90